San Francisco, CA (94121)

1:30 PM PST on March 03, 2015 (GMT -0800)
Ocean Beach - Kellys Cove | Change Station
CLOSE
Current Station
Personal Weather Station
Location: San Francisco, CA
Elevation: 80 ft
Nearby Weather Stations

Elev 80 ft 37.78 °N, 122.51 °W | Updated 23 seconds ago

Clear
Clear
59.1 °F
Feels Like 59.1 °F
N
13.0
Wind Variable Wind from WNW
Gusts 13.0 mph

Today
High -- | Low -- °F
--% Chance of Precip.
Yesterday
High -- | Low -- °F
Precip. -- in
6:38 AM 6:05 PM
Waxing Gibbous, 97% visible
Pressure 30.02 in
Visibility 10.0 miles
Clouds Few 2500 ft
Dew Point 52 °F
Humidity 76%
Rainfall 0.00 in
Snow Depth Not available.
UV 6 out of 12
Pollen 8.20 out of 12
Air Quality Not available.
Flu Activity Not available.
METAR KSFO 032056Z 00000KT 10SM FEW025 16/08 A3002 RMK AO2 SLP166 T01610083 58013

More Conditions Fewer Conditions

Pressure 30.02 in
Visibility 10.0 miles
Clouds Few 2500 ft
Dew Point 52 °F
Humidity 76%
Rainfall 0.00 in
Snow Depth Not available.
UV 6 out of 12
Pollen 8.20 out of 12
Air Quality Not available.
Flu Activity Not available.
METAR KSFO 032056Z 00000KT 10SM FEW025 16/08 A3002 RMK AO2 SLP166 T01610083 58013

More Conditions Fewer Conditions

10-Day Weather Forecast

Almanac

Astronomy

Mar. 03, 2015 Rise Set
Actual Time
Civil Twilight
Nautical Twilight
Astronomical Twilight
Moon
Length of Visible Light
Length of Day
Tomorrow will be .
, % of the Moon is Illuminated

Today's Extremes

State Highs State Lows

Community

WunderPhotos

Upload Photos

1,802,261 photos uploaded!

WunderBlogs® & News

Nearby

Air Quality

  Air Quality AQ Index Pollutant
Not available.

Snow Depth

Station Depth Elevation

Earthquake Activity

City Distance Mag. Time & Date
Minimum magnitude displayed is 2.5.

Coastal Water Temperatures

Place Temperature

Nearby Weather Stations